createdAt,value
2023-02-15T00:00:38.967Z,102811.66
2023-02-15T00:03:05.462Z,102814.94
2023-02-15T00:05:32.324Z,102812.31
2023-02-15T00:07:58.739Z,102809.75
2023-02-15T00:10:25.139Z,102802.47
2023-02-15T00:12:51.525Z,102800.78
2023-02-15T00:15:18.019Z,102793.53
2023-02-15T00:17:44.450Z,102793.38
2023-02-15T00:20:11.854Z,102788.69
2023-02-15T00:22:38.271Z,102792.00
2023-02-15T00:25:04.942Z,102792.38
2023-02-15T00:27:31.355Z,102789.97
2023-02-15T00:29:57.857Z,102786.50
2023-02-15T00:32:24.270Z,102783.91
2023-02-15T00:34:50.660Z,102789.44
2023-02-15T00:37:17.129Z,102793.59
2023-02-15T00:39:47.231Z,102791.53
2023-02-15T00:42:13.626Z,102783.06
2023-02-15T00:44:40.049Z,102788.09
2023-02-15T00:47:06.543Z,102786.19
2023-02-15T00:49:33.383Z,102792.91
2023-02-15T00:51:59.808Z,102793.97
2023-02-15T00:54:26.219Z,102787.91
2023-02-15T00:56:52.627Z,102786.06
2023-02-15T00:59:19.044Z,102778.44
2023-02-15T01:01:47.548Z,102779.47
2023-02-15T01:04:13.992Z,102773.81
2023-02-15T01:06:40.432Z,102777.09
2023-02-15T01:09:06.895Z,102777.09
2023-02-15T01:11:33.321Z,102773.47
2023-02-15T01:13:59.795Z,102779.16
2023-02-15T01:16:28.573Z,102763.66
2023-02-15T01:18:57.986Z,102778.44
2023-02-15T01:21:26.119Z,102766.41
2023-02-15T01:23:52.905Z,102757.09
2023-02-15T01:26:19.300Z,102754.69
2023-02-15T01:28:46.511Z,102750.56
2023-02-15T01:31:15.772Z,102748.47
2023-02-15T01:33:44.533Z,102756.25
2023-02-15T01:36:11.294Z,102745.91
2023-02-15T01:38:40.719Z,102756.59
2023-02-15T01:41:25.480Z,102741.94
2023-02-15T01:43:56.188Z,102740.19
2023-02-15T01:46:32.296Z,102741.25
2023-02-15T01:49:10.740Z,102729.72
2023-02-15T01:51:38.825Z,102719.56
2023-02-15T01:54:12.905Z,102719.38
2023-02-15T01:56:41.863Z,102712.66
2023-02-15T01:59:15.804Z,102706.47
2023-02-15T02:01:42.327Z,102693.91
2023-02-15T02:04:18.882Z,102698.38
2023-02-15T02:06:49.563Z,102695.47
2023-02-15T02:09:16.014Z,102695.97
2023-02-15T02:11:45.817Z,102686.84
2023-02-15T02:14:12.851Z,102695.28
2023-02-15T02:16:53.226Z,102691.66
2023-02-15T02:19:46.618Z,102698.22
2023-02-15T02:22:50.434Z,102692.34
2023-02-15T02:25:33.753Z,102682.03
2023-02-15T02:28:36.657Z,102679.28
2023-02-15T02:31:49.181Z,102673.91
2023-02-15T02:34:32.649Z,102676.16
2023-02-15T02:37:24.237Z,102673.75
2023-02-15T02:40:04.721Z,102671.00
2023-02-15T02:42:39.839Z,102674.63
2023-02-15T02:45:07.829Z,102667.56
2023-02-15T02:47:39.948Z,102669.25
2023-02-15T02:50:10.778Z,102665.50
2023-02-15T02:52:52.382Z,102666.16
2023-02-15T02:55:30.961Z,102668.06
2023-02-15T02:58:16.782Z,102661.19
2023-02-15T03:00:49.368Z,102661.00
2023-02-15T03:03:38.676Z,102658.94
2023-02-15T03:06:11.109Z,102649.81
2023-02-15T03:08:43.422Z,102648.78
2023-02-15T03:11:10.034Z,102644.81
2023-02-15T03:13:36.698Z,102658.06
2023-02-15T03:16:26.357Z,102643.81
2023-02-15T03:18:59.598Z,102635.69
2023-02-15T03:21:58.593Z,102635.19
2023-02-15T03:24:31.242Z,102634.16
2023-02-15T03:26:58.105Z,102637.94
2023-02-15T03:29:28.317Z,102626.75
2023-02-15T03:31:58.877Z,102639.81
2023-02-15T03:34:26.169Z,102629.50
2023-02-15T03:37:17.372Z,102627.78
2023-02-15T03:39:53.473Z,102627.94
2023-02-15T03:42:32.459Z,102627.41
2023-02-15T03:45:03.506Z,102631.03
2023-02-15T03:47:32.235Z,102624.84
2023-02-15T03:50:27.796Z,102626.72
2023-02-15T03:52:56.521Z,102623.81
2023-02-15T03:55:23.121Z,102619.50
2023-02-15T03:58:08.332Z,102626.41
2023-02-15T04:00:57.089Z,102618.28
2023-02-15T04:03:46.764Z,102624.28
2023-02-15T04:06:13.139Z,102622.09
2023-02-15T04:08:58.277Z,102619.50
2023-02-15T04:11:24.707Z,102612.97
2023-02-15T04:13:57.241Z,102617.09
2023-02-15T04:16:24.760Z,102612.63
2023-02-15T04:19:09.784Z,102613.97
2023-02-15T04:21:54.825Z,102605.72
2023-02-15T04:24:39.989Z,102607.63
2023-02-15T04:27:06.790Z,102599.88
2023-02-15T04:29:33.462Z,102599.00
2023-02-15T04:32:02.131Z,102593.16
2023-02-15T04:34:28.586Z,102604.88
2023-02-15T04:36:54.986Z,102598.69
2023-02-15T04:39:21.373Z,102588.72
2023-02-15T04:41:48.677Z,102585.78
2023-02-15T04:44:15.184Z,102584.06
2023-02-15T04:46:41.597Z,102580.47
2023-02-15T04:49:09.470Z,102563.59
2023-02-15T04:51:35.887Z,102565.66
2023-02-15T04:54:02.292Z,102557.56
2023-02-15T04:56:30.875Z,102554.50
2023-02-15T04:58:57.333Z,102548.09
2023-02-15T05:01:23.772Z,102550.34
2023-02-15T05:03:50.284Z,102548.44
2023-02-15T05:06:16.719Z,102550.00
2023-02-15T05:08:43.130Z,102547.25
2023-02-15T05:11:09.614Z,102550.34
2023-02-15T05:13:36.017Z,102543.13
2023-02-15T05:16:02.819Z,102536.59
2023-02-15T05:18:29.438Z,102543.50
2023-02-15T05:20:55.873Z,102547.78
2023-02-15T05:23:22.280Z,102546.06
2023-02-15T05:26:08.175Z,102544.00
2023-02-15T05:28:35.726Z,102544.00
2023-02-15T05:31:12.718Z,102539.84
2023-02-15T05:33:40.302Z,102533.47
2023-02-15T05:36:07.614Z,102527.13
2023-02-15T05:38:34.421Z,102528.81
2023-02-15T05:41:00.939Z,102527.63
2023-02-15T05:43:27.652Z,102526.75
2023-02-15T05:45:55.728Z,102524.69
2023-02-15T05:48:24.958Z,102525.06
2023-02-15T05:51:13.849Z,102523.84
2023-02-15T05:53:40.710Z,102525.56
2023-02-15T05:56:09.013Z,102526.91
2023-02-15T05:58:38.839Z,102528.47
2023-02-15T06:01:23.901Z,102527.81
2023-02-15T06:03:50.405Z,102527.47
2023-02-15T06:06:17.014Z,102523.66
2023-02-15T06:08:43.460Z,102521.25
2023-02-15T06:11:10.244Z,102520.03
2023-02-15T06:13:38.697Z,102521.38
2023-02-15T06:16:06.615Z,102516.91
2023-02-15T06:18:33.143Z,102517.59
2023-02-15T06:20:59.571Z,102517.75
2023-02-15T06:23:26.006Z,102522.63
2023-02-15T06:25:52.547Z,102522.78
2023-02-15T06:28:18.984Z,102521.94
2023-02-15T06:30:45.415Z,102509.16
2023-02-15T06:33:11.824Z,102513.31
2023-02-15T06:35:38.241Z,102516.56
2023-02-15T06:38:05.696Z,102511.56
2023-02-15T06:40:32.090Z,102517.06
2023-02-15T06:42:58.486Z,102516.94
2023-02-15T06:45:24.923Z,102522.59
2023-02-15T06:47:51.321Z,102516.75
2023-02-15T06:50:17.771Z,102519.16
2023-02-15T06:52:44.238Z,102516.41
2023-02-15T06:55:10.627Z,102516.75
2023-02-15T06:57:37.429Z,102515.69
2023-02-15T07:00:05.854Z,102516.94
2023-02-15T07:02:32.565Z,102522.78
2023-02-15T07:04:59.046Z,102520.38
2023-02-15T07:07:25.511Z,102520.16
2023-02-15T07:09:52.191Z,102519.50
2023-02-15T07:12:37.424Z,102511.88
2023-02-15T07:15:06.899Z,102502.41
2023-02-15T07:17:35.897Z,102506.16
2023-02-15T07:20:05.829Z,102497.72
2023-02-15T07:22:32.299Z,102502.50
2023-02-15T07:24:58.751Z,102496.84
2023-02-15T07:27:25.144Z,102497.53
2023-02-15T07:29:51.582Z,102490.63
2023-02-15T07:32:18.195Z,102496.22
2023-02-15T07:34:44.625Z,102488.88
2023-02-15T07:37:11.072Z,102488.94
2023-02-15T07:39:37.481Z,102491.44
2023-02-15T07:42:03.889Z,102484.19
2023-02-15T07:44:31.114Z,102486.94
2023-02-15T07:46:57.515Z,102482.47
2023-02-15T07:49:24.159Z,102485.94
2023-02-15T07:51:50.684Z,102476.47
2023-02-15T07:54:17.089Z,102472.16
2023-02-15T07:56:43.497Z,102472.81
2023-02-15T07:59:10.185Z,102472.31
2023-02-15T08:01:38.103Z,102472.16
2023-02-15T08:04:06.994Z,102466.44
2023-02-15T08:06:36.788Z,102473.13
2023-02-15T08:09:08.604Z,102465.53
2023-02-15T08:11:43.668Z,102465.19
2023-02-15T08:14:15.504Z,102457.94
2023-02-15T08:16:44.895Z,102453.25
2023-02-15T08:19:12.564Z,102457.75
2023-02-15T08:21:41.618Z,102448.94
2023-02-15T08:24:09.501Z,102453.63
2023-02-15T08:26:36.690Z,102449.44
2023-02-15T08:29:04.106Z,102457.16
2023-02-15T08:31:30.750Z,102444.19
2023-02-15T08:33:58.242Z,102445.34
2023-02-15T08:36:29.786Z,102446.41
2023-02-15T08:38:59.263Z,102431.72
2023-02-15T08:41:28.031Z,102430.06
2023-02-15T08:43:56.265Z,102426.75
2023-02-15T08:46:24.492Z,102433.72
2023-02-15T08:48:51.411Z,102430.56
2023-02-15T08:51:26.218Z,102429.47
2023-02-15T08:53:55.148Z,102422.88
2023-02-15T08:56:27.085Z,102425.84
2023-02-15T08:58:54.298Z,102431.28
2023-02-15T09:01:23.399Z,102430.06
2023-02-15T09:03:54.306Z,102425.16
2023-02-15T09:06:21.873Z,102430.09
2023-02-15T09:08:48.385Z,102422.19
2023-02-15T09:11:23.185Z,102407.91
2023-02-15T09:13:53.071Z,102412.00
2023-02-15T09:16:19.501Z,102418.56
2023-02-15T09:18:46.277Z,102400.88
2023-02-15T09:21:18.192Z,102406.91
2023-02-15T09:23:45.879Z,102405.28
2023-02-15T09:26:15.353Z,102408.13
2023-02-15T09:28:42.216Z,102410.72
2023-02-15T09:31:18.291Z,102406.06
2023-02-15T09:33:46.895Z,102415.09
2023-02-15T09:36:27.925Z,102414.53
2023-02-15T09:39:00.000Z,102422.91
2023-02-15T09:41:38.312Z,102412.13
2023-02-15T09:44:23.174Z,102406.34
2023-02-15T09:47:28.637Z,102402.41
2023-02-15T09:50:19.989Z,102405.69
2023-02-15T09:52:48.883Z,102401.69
2023-02-15T09:55:49.407Z,102408.69
2023-02-15T09:58:38.000Z,102407.09
2023-02-15T10:01:21.759Z,102400.63
2023-02-15T10:04:19.336Z,102398.41
2023-02-15T10:07:14.991Z,102404.91
2023-02-15T10:10:08.570Z,102411.09
2023-02-15T10:13:13.766Z,102397.94
2023-02-15T10:15:54.252Z,102393.25
2023-02-15T10:18:51.449Z,102396.69
2023-02-15T10:21:41.332Z,102388.13
2023-02-15T10:24:23.837Z,102378.06
2023-02-15T10:26:50.313Z,102388.47
2023-02-15T10:29:32.702Z,102383.94
2023-02-15T10:32:24.424Z,102375.66
2023-02-15T10:35:24.434Z,102381.34
2023-02-15T10:38:06.671Z,102373.50
2023-02-15T10:40:47.460Z,102370.41
2023-02-15T10:43:19.840Z,102368.28
2023-02-15T10:45:57.817Z,102371.81
2023-02-15T10:48:58.577Z,102356.91
2023-02-15T10:51:43.837Z,102363.56
2023-02-15T10:54:49.218Z,102356.72
2023-02-15T10:57:40.526Z,102351.91
2023-02-15T11:00:10.416Z,102349.13
2023-02-15T11:03:01.903Z,102343.78
2023-02-15T11:06:02.222Z,102334.13
2023-02-15T11:08:32.445Z,102331.94
2023-02-15T11:11:12.627Z,102328.34
2023-02-15T11:13:48.173Z,102331.78
2023-02-15T11:16:23.854Z,102335.25
2023-02-15T11:19:11.898Z,102335.28
2023-02-15T11:21:43.878Z,102324.25
2023-02-15T11:24:19.184Z,102324.31
2023-02-15T11:26:52.690Z,102312.88
2023-02-15T11:29:41.644Z,102316.91
2023-02-15T11:32:26.917Z,102314.88
2023-02-15T11:35:15.981Z,102311.03
2023-02-15T11:37:59.621Z,102307.66
2023-02-15T11:40:36.329Z,102311.31
2023-02-15T11:43:14.509Z,102305.16
2023-02-15T11:45:43.547Z,102297.50
2023-02-15T11:48:12.765Z,102297.72
2023-02-15T11:50:39.796Z,102293.69
2023-02-15T11:53:12.585Z,102292.00
2023-02-15T11:55:39.652Z,102293.91
2023-02-15T11:58:22.124Z,102295.63
2023-02-15T12:00:53.330Z,102290.72
2023-02-15T12:03:25.404Z,102281.16
2023-02-15T12:05:57.276Z,102275.56
2023-02-15T12:08:23.701Z,102263.38
2023-02-15T12:11:01.623Z,102268.03
2023-02-15T12:13:28.342Z,102269.09
2023-02-15T12:15:58.375Z,102263.03
2023-02-15T12:18:45.168Z,102261.25
2023-02-15T12:21:29.111Z,102261.84
2023-02-15T12:24:00.922Z,102253.06
2023-02-15T12:26:33.108Z,102252.16
2023-02-15T12:29:03.112Z,102255.97
2023-02-15T12:31:37.116Z,102255.63
2023-02-15T12:34:26.245Z,102248.22
2023-02-15T12:36:58.892Z,102246.81
2023-02-15T12:39:28.480Z,102242.94
2023-02-15T12:41:54.865Z,102237.72
2023-02-15T12:44:25.229Z,102236.28
2023-02-15T12:47:04.946Z,102230.75
2023-02-15T12:49:36.951Z,102218.09
2023-02-15T12:52:21.042Z,102222.44
2023-02-15T12:54:48.325Z,102226.16
2023-02-15T12:57:27.594Z,102220.69
2023-02-15T13:00:06.965Z,102217.72
2023-02-15T13:02:43.788Z,102205.41
2023-02-15T13:05:38.201Z,102204.59
2023-02-15T13:08:17.579Z,102204.28
2023-02-15T13:10:56.903Z,102193.44
2023-02-15T13:13:27.207Z,102189.00
2023-02-15T13:15:59.258Z,102181.75
2023-02-15T13:18:37.800Z,102176.97
2023-02-15T13:21:12.070Z,102186.47
2023-02-15T13:23:43.159Z,102177.09
2023-02-15T13:26:11.885Z,102170.88
2023-02-15T13:28:48.324Z,102172.78
2023-02-15T13:31:18.357Z,102175.34
2023-02-15T13:33:50.385Z,102173.91
2023-02-15T13:36:25.720Z,102164.50
2023-02-15T13:38:58.345Z,102164.00
2023-02-15T13:41:36.640Z,102158.97
2023-02-15T13:44:38.622Z,102160.63
2023-02-15T13:47:18.148Z,102155.34
2023-02-15T13:50:07.783Z,102157.28
2023-02-15T13:52:57.429Z,102153.66
2023-02-15T13:55:35.537Z,102155.97
2023-02-15T13:58:39.376Z,102158.84
2023-02-15T14:01:19.374Z,102152.91
2023-02-15T14:04:11.401Z,102149.50
2023-02-15T14:07:07.321Z,102151.22
2023-02-15T14:09:48.797Z,102145.88
2023-02-15T14:12:46.755Z,102138.47
2023-02-15T14:15:13.107Z,102136.94
2023-02-15T14:17:55.284Z,102134.38
2023-02-15T14:20:40.336Z,102142.88
2023-02-15T14:23:29.000Z,102125.97
2023-02-15T14:26:02.851Z,102128.25
2023-02-15T14:28:38.299Z,102134.84
2023-02-15T14:31:08.138Z,102129.50
2023-02-15T14:33:53.517Z,102129.78
2023-02-15T14:36:20.936Z,102124.72
2023-02-15T14:39:30.333Z,102120.19
2023-02-15T14:42:02.909Z,102116.56
2023-02-15T14:45:02.380Z,102108.78
2023-02-15T14:47:37.684Z,102116.63
2023-02-15T14:50:39.500Z,102107.97
2023-02-15T14:53:27.575Z,102103.53
2023-02-15T14:56:12.385Z,102107.47
2023-02-15T14:58:39.139Z,102108.75
2023-02-15T15:01:10.662Z,102104.50
2023-02-15T15:03:44.116Z,102102.22
2023-02-15T15:06:26.257Z,102109.50
2023-02-15T15:08:56.642Z,102108.63
2023-02-15T15:11:42.638Z,102119.59
2023-02-15T15:14:11.302Z,102113.59
2023-02-15T15:16:38.082Z,102119.41
2023-02-15T15:19:07.245Z,102121.63
2023-02-15T15:21:53.283Z,102119.41
2023-02-15T15:24:38.007Z,102119.16
2023-02-15T15:27:46.583Z,102117.72
2023-02-15T15:30:15.763Z,102121.28
2023-02-15T15:33:00.584Z,102117.84
2023-02-15T15:35:44.907Z,102111.09
2023-02-15T15:38:55.206Z,102106.88
2023-02-15T15:41:49.597Z,102114.88
2023-02-15T15:44:52.884Z,102114.19
2023-02-15T15:47:41.294Z,102107.09
2023-02-15T15:50:17.897Z,102113.97
2023-02-15T15:52:52.412Z,102109.72
2023-02-15T15:55:23.002Z,102109.53
2023-02-15T15:57:55.985Z,102115.75
2023-02-15T16:00:37.827Z,102100.63
2023-02-15T16:03:05.289Z,102105.63
2023-02-15T16:05:39.593Z,102100.72
2023-02-15T16:08:06.497Z,102097.50
2023-02-15T16:10:36.828Z,102097.53
2023-02-15T16:13:03.367Z,102091.75
2023-02-15T16:15:50.470Z,102088.91
2023-02-15T16:18:18.921Z,102092.78
2023-02-15T16:20:57.882Z,102086.34
2023-02-15T16:23:36.243Z,102093.44
2023-02-15T16:26:39.673Z,102096.09
2023-02-15T16:29:26.713Z,102093.53
2023-02-15T16:32:19.382Z,102094.22
2023-02-15T16:34:56.825Z,102105.06
2023-02-15T16:37:28.163Z,102105.78
2023-02-15T16:39:56.062Z,102103.31
2023-02-15T16:42:23.136Z,102097.94
2023-02-15T16:44:55.002Z,102103.88
2023-02-15T16:47:32.444Z,102106.69
2023-02-15T16:50:02.929Z,102112.03
2023-02-15T16:52:30.576Z,102115.50
2023-02-15T16:55:00.827Z,102108.31
2023-02-15T16:57:30.978Z,102107.19
2023-02-15T17:00:04.169Z,102101.88
2023-02-15T17:02:54.374Z,102085.22
2023-02-15T17:05:20.889Z,102092.66
2023-02-15T17:08:04.405Z,102094.63
2023-02-15T17:10:32.845Z,102094.59
2023-02-15T17:13:04.723Z,102103.16
2023-02-15T17:15:38.478Z,102099.63
2023-02-15T17:18:15.878Z,102100.16
2023-02-15T17:20:44.485Z,102103.41
2023-02-15T17:23:23.222Z,102095.47
2023-02-15T17:25:49.978Z,102102.19
2023-02-15T17:28:19.569Z,102095.25
2023-02-15T17:30:47.319Z,102098.66
2023-02-15T17:33:23.755Z,102101.16
2023-02-15T17:36:05.445Z,102103.31
2023-02-15T17:38:32.299Z,102107.38
2023-02-15T17:40:59.197Z,102098.00
2023-02-15T17:43:26.567Z,102102.50
2023-02-15T17:45:53.555Z,102093.16
2023-02-15T17:48:35.205Z,102095.31
2023-02-15T17:51:03.062Z,102096.66
2023-02-15T17:53:29.824Z,102100.06
2023-02-15T17:55:56.241Z,102102.00
2023-02-15T17:58:22.981Z,102097.72
2023-02-15T18:01:11.036Z,102103.31
2023-02-15T18:04:02.781Z,102103.72
2023-02-15T18:06:48.374Z,102099.91
2023-02-15T18:09:36.519Z,102098.00
2023-02-15T18:12:15.444Z,102095.44
2023-02-15T18:14:41.905Z,102092.03
2023-02-15T18:17:12.239Z,102087.75
2023-02-15T18:19:38.902Z,102083.53
2023-02-15T18:22:11.387Z,102079.66
2023-02-15T18:24:37.824Z,102073.03
2023-02-15T18:27:05.274Z,102078.19
2023-02-15T18:29:32.235Z,102073.91
2023-02-15T18:32:00.157Z,102073.69
2023-02-15T18:34:38.238Z,102071.56
2023-02-15T18:37:07.244Z,102082.84
2023-02-15T18:39:40.062Z,102081.78
2023-02-15T18:42:20.536Z,102078.16
2023-02-15T18:44:47.603Z,102091.56
2023-02-15T18:47:14.010Z,102079.66
2023-02-15T18:49:40.394Z,102083.25
2023-02-15T18:52:14.429Z,102091.16
2023-02-15T18:54:42.010Z,102088.13
2023-02-15T18:57:15.830Z,102084.69
2023-02-15T18:59:42.338Z,102090.22
2023-02-15T19:02:17.258Z,102082.56
2023-02-15T19:04:45.320Z,102075.72
2023-02-15T19:07:17.780Z,102079.81
2023-02-15T19:09:47.756Z,102076.16
2023-02-15T19:12:14.198Z,102072.34
2023-02-15T19:14:40.716Z,102069.16
2023-02-15T19:17:15.260Z,102065.06
2023-02-15T19:19:41.753Z,102063.81
2023-02-15T19:22:30.367Z,102056.75
2023-02-15T19:24:59.263Z,102052.31
2023-02-15T19:27:28.615Z,102048.00
2023-02-15T19:29:55.095Z,102045.41
2023-02-15T19:32:21.605Z,102050.28
2023-02-15T19:34:48.055Z,102047.09
2023-02-15T19:37:36.974Z,102032.88
2023-02-15T19:40:04.961Z,102029.22
2023-02-15T19:42:32.475Z,102025.78
2023-02-15T19:44:58.859Z,102027.41
2023-02-15T19:47:27.840Z,102026.56
2023-02-15T19:50:00.223Z,102025.66
2023-02-15T19:52:26.639Z,102026.91
2023-02-15T19:54:54.704Z,102021.19
2023-02-15T19:57:21.569Z,102016.69
2023-02-15T19:59:47.965Z,102001.53
2023-02-15T20:02:15.733Z,101999.88
2023-02-15T20:04:42.258Z,102001.94
2023-02-15T20:07:28.292Z,101996.00
2023-02-15T20:09:54.742Z,101994.13
2023-02-15T20:12:24.365Z,101987.44
2023-02-15T20:14:51.841Z,101995.75
2023-02-15T20:17:18.733Z,101999.56
2023-02-15T20:19:46.116Z,101997.84
2023-02-15T20:22:24.980Z,101992.72
2023-02-15T20:24:52.718Z,101992.72
2023-02-15T20:27:19.935Z,101991.63
2023-02-15T20:29:46.380Z,101998.47
2023-02-15T20:32:13.020Z,101986.34
2023-02-15T20:34:39.543Z,101992.06
2023-02-15T20:37:06.314Z,101987.59
2023-02-15T20:39:34.788Z,101985.44
2023-02-15T20:42:01.197Z,101989.44
2023-02-15T20:44:30.777Z,101986.84
2023-02-15T20:46:59.133Z,102001.31
2023-02-15T20:49:27.403Z,101991.31
2023-02-15T20:51:56.139Z,102001.06
2023-02-15T20:54:28.890Z,101999.38
2023-02-15T20:56:55.380Z,101998.06
2023-02-15T20:59:23.446Z,101989.75
2023-02-15T21:01:51.546Z,101995.44
2023-02-15T21:04:32.025Z,101989.50
2023-02-15T21:06:59.792Z,101988.25
2023-02-15T21:09:26.420Z,101986.91
2023-02-15T21:11:55.485Z,101984.28
2023-02-15T21:14:25.838Z,101980.50
2023-02-15T21:16:53.084Z,101981.28
2023-02-15T21:19:21.513Z,101985.50
2023-02-15T21:21:50.045Z,101983.94
2023-02-15T21:24:34.780Z,101992.47
2023-02-15T21:27:03.545Z,101979.47
2023-02-15T21:29:30.900Z,101985.66
2023-02-15T21:32:01.156Z,101990.50
2023-02-15T21:34:27.725Z,101995.59
2023-02-15T21:36:54.563Z,101995.97
2023-02-15T21:39:23.887Z,102006.38
2023-02-15T21:42:11.204Z,102001.91
2023-02-15T21:44:56.373Z,102005.69
2023-02-15T21:47:47.125Z,102008.69
2023-02-15T21:50:41.925Z,102000.13
2023-02-15T21:53:12.298Z,101995.00
2023-02-15T21:55:38.850Z,101999.19
2023-02-15T21:58:06.267Z,101996.84
2023-02-15T22:00:33.795Z,101991.72
2023-02-15T22:03:01.074Z,101987.44
2023-02-15T22:05:30.993Z,101983.00
2023-02-15T22:07:57.753Z,101984.91
2023-02-15T22:10:32.468Z,101985.47
2023-02-15T22:13:03.293Z,101981.19
2023-02-15T22:15:35.925Z,101978.63
2023-02-15T22:18:02.648Z,101982.66
2023-02-15T22:20:29.149Z,101993.50
2023-02-15T22:22:55.555Z,101977.16
2023-02-15T22:25:24.574Z,101967.16
2023-02-15T22:27:52.863Z,101977.34
2023-02-15T22:30:25.430Z,101973.44
2023-02-15T22:32:52.934Z,101978.13
2023-02-15T22:35:28.972Z,101970.25
2023-02-15T22:37:55.389Z,101970.22
2023-02-15T22:40:25.613Z,101965.03
2023-02-15T22:42:53.521Z,101965.97
2023-02-15T22:45:23.924Z,101969.31
2023-02-15T22:47:53.441Z,101962.66
2023-02-15T22:50:26.144Z,101968.56
2023-02-15T22:52:53.033Z,101965.38
2023-02-15T22:55:22.162Z,101966.47
2023-02-15T22:57:51.562Z,101967.06
2023-02-15T23:00:24.217Z,101965.94
2023-02-15T23:02:50.814Z,101969.38
2023-02-15T23:05:26.407Z,101962.78
2023-02-15T23:07:53.168Z,101961.28
2023-02-15T23:10:21.477Z,101958.91
2023-02-15T23:13:09.719Z,101971.19
2023-02-15T23:15:37.061Z,101964.03
2023-02-15T23:18:17.098Z,101953.44
2023-02-15T23:20:54.812Z,101955.06
2023-02-15T23:23:29.484Z,101967.19
2023-02-15T23:25:56.561Z,101970.22
2023-02-15T23:28:41.008Z,101967.28
2023-02-15T23:31:18.317Z,101959.47
2023-02-15T23:33:45.021Z,101956.34
2023-02-15T23:36:34.314Z,101955.56
2023-02-15T23:39:30.924Z,101960.72
2023-02-15T23:41:59.167Z,101963.34
2023-02-15T23:44:25.718Z,101972.84
2023-02-15T23:46:52.330Z,101972.47
2023-02-15T23:49:19.939Z,101973.31
2023-02-15T23:51:49.240Z,101970.38
2023-02-15T23:54:17.377Z,101970.72
2023-02-15T23:56:46.270Z,101972.84
2023-02-15T23:59:17.787Z,101970.72
